sensor_id;sensor_type;location;lat;lon;timestamp;P1;durP1;ratioP1;P2;durP2;ratioP2
31336;SDS011;22846;42.654;23.314;2023-04-15T00:00:22;1.45;;;1.17;;
31336;SDS011;22846;42.654;23.314;2023-04-15T00:02:48;1.23;;;1.00;;
31336;SDS011;22846;42.654;23.314;2023-04-15T00:05:13;1.73;;;1.15;;
31336;SDS011;22846;42.654;23.314;2023-04-15T00:07:39;1.77;;;1.17;;
31336;SDS011;22846;42.654;23.314;2023-04-15T00:10:05;1.20;;;1.00;;
31336;SDS011;22846;42.654;23.314;2023-04-15T00:12:31;1.65;;;1.20;;
31336;SDS011;22846;42.654;23.314;2023-04-15T00:14:56;1.40;;;1.10;;
31336;SDS011;22846;42.654;23.314;2023-04-15T00:17:23;1.80;;;1.20;;
31336;SDS011;22846;42.654;23.314;2023-04-15T00:19:48;1.58;;;1.05;;
31336;SDS011;22846;42.654;23.314;2023-04-15T00:22:14;1.70;;;1.10;;
31336;SDS011;22846;42.654;23.314;2023-04-15T00:24:40;2.88;;;1.30;;
31336;SDS011;22846;42.654;23.314;2023-04-15T00:27:05;1.38;;;1.20;;
31336;SDS011;22846;42.654;23.314;2023-04-15T00:29:31;1.45;;;1.10;;
31336;SDS011;22846;42.654;23.314;2023-04-15T00:31:57;2.40;;;1.20;;
31336;SDS011;22846;42.654;23.314;2023-04-15T00:34:22;1.85;;;1.10;;
31336;SDS011;22846;42.654;23.314;2023-04-15T00:36:48;2.40;;;1.20;;
31336;SDS011;22846;42.654;23.314;2023-04-15T00:39:15;1.40;;;1.05;;
31336;SDS011;22846;42.654;23.314;2023-04-15T00:41:41;1.90;;;1.35;;
31336;SDS011;22846;42.654;23.314;2023-04-15T00:44:07;1.10;;;1.00;;
31336;SDS011;22846;42.654;23.314;2023-04-15T00:46:36;1.35;;;1.10;;
31336;SDS011;22846;42.654;23.314;2023-04-15T00:49:03;2.00;;;1.20;;
31336;SDS011;22846;42.654;23.314;2023-04-15T00:51:30;1.33;;;1.10;;
31336;SDS011;22846;42.654;23.314;2023-04-15T00:53:58;1.52;;;1.10;;
31336;SDS011;22846;42.654;23.314;2023-04-15T00:56:24;2.90;;;1.23;;
31336;SDS011;22846;42.654;23.314;2023-04-15T00:58:52;1.40;;;1.00;;
31336;SDS011;22846;42.654;23.314;2023-04-15T01:01:21;1.10;;;0.80;;
31336;SDS011;22846;42.654;23.314;2023-04-15T01:03:48;1.50;;;1.30;;
31336;SDS011;22846;42.654;23.314;2023-04-15T01:06:14;1.17;;;1.08;;
31336;SDS011;22846;42.654;23.314;2023-04-15T01:08:39;1.90;;;1.40;;
31336;SDS011;22846;42.654;23.314;2023-04-15T01:11:05;1.42;;;1.25;;
31336;SDS011;22846;42.654;23.314;2023-04-15T01:13:31;2.35;;;1.30;;
31336;SDS011;22846;42.654;23.314;2023-04-15T01:15:58;2.05;;;1.38;;
31336;SDS011;22846;42.654;23.314;2023-04-15T01:18:24;2.33;;;1.38;;
31336;SDS011;22846;42.654;23.314;2023-04-15T01:20:51;2.13;;;1.40;;
31336;SDS011;22846;42.654;23.314;2023-04-15T01:23:17;1.85;;;1.33;;
31336;SDS011;22846;42.654;23.314;2023-04-15T01:25:42;1.50;;;1.10;;
31336;SDS011;22846;42.654;23.314;2023-04-15T01:28:08;1.20;;;1.00;;
31336;SDS011;22846;42.654;23.314;2023-04-15T01:30:34;2.03;;;1.25;;
31336;SDS011;22846;42.654;23.314;2023-04-15T01:33:00;1.67;;;1.23;;
31336;SDS011;22846;42.654;23.314;2023-04-15T01:35:25;2.05;;;1.45;;
31336;SDS011;22846;42.654;23.314;2023-04-15T01:37:52;1.33;;;1.00;;
31336;SDS011;22846;42.654;23.314;2023-04-15T01:40:18;1.70;;;1.20;;
31336;SDS011;22846;42.654;23.314;2023-04-15T01:42:44;1.50;;;1.27;;
31336;SDS011;22846;42.654;23.314;2023-04-15T01:45:10;1.95;;;1.33;;
31336;SDS011;22846;42.654;23.314;2023-04-15T01:47:37;2.03;;;1.38;;
31336;SDS011;22846;42.654;23.314;2023-04-15T01:50:03;1.38;;;1.25;;
31336;SDS011;22846;42.654;23.314;2023-04-15T01:52:29;1.25;;;1.00;;
31336;SDS011;22846;42.654;23.314;2023-04-15T01:54:54;1.73;;;1.10;;
31336;SDS011;22846;42.654;23.314;2023-04-15T01:57:20;2.03;;;1.45;;
31336;SDS011;22846;42.654;23.314;2023-04-15T01:59:46;1.65;;;1.40;;
31336;SDS011;22846;42.654;23.314;2023-04-15T02:02:11;2.35;;;1.10;;
31336;SDS011;22846;42.654;23.314;2023-04-15T02:04:36;1.92;;;1.27;;
31336;SDS011;22846;42.654;23.314;2023-04-15T02:07:02;3.53;;;1.30;;
31336;SDS011;22846;42.654;23.314;2023-04-15T02:09:27;2.10;;;1.30;;
31336;SDS011;22846;42.654;23.314;2023-04-15T02:11:53;1.25;;;1.15;;
31336;SDS011;22846;42.654;23.314;2023-04-15T02:14:18;1.42;;;1.17;;
31336;SDS011;22846;42.654;23.314;2023-04-15T02:16:44;2.03;;;1.20;;
31336;SDS011;22846;42.654;23.314;2023-04-15T02:19:09;1.95;;;1.30;;
31336;SDS011;22846;42.654;23.314;2023-04-15T02:21:35;1.30;;;1.17;;
31336;SDS011;22846;42.654;23.314;2023-04-15T02:24:00;2.95;;;1.42;;
31336;SDS011;22846;42.654;23.314;2023-04-15T02:26:26;2.08;;;1.40;;
31336;SDS011;22846;42.654;23.314;2023-04-15T02:28:52;1.90;;;1.30;;
31336;SDS011;22846;42.654;23.314;2023-04-15T02:31:17;1.63;;;1.27;;
31336;SDS011;22846;42.654;23.314;2023-04-15T02:33:43;2.38;;;1.25;;
31336;SDS011;22846;42.654;23.314;2023-04-15T02:36:08;1.42;;;1.20;;
31336;SDS011;22846;42.654;23.314;2023-04-15T02:38:35;1.80;;;1.35;;
31336;SDS011;22846;42.654;23.314;2023-04-15T02:41:02;1.98;;;1.20;;
31336;SDS011;22846;42.654;23.314;2023-04-15T02:43:27;2.60;;;1.80;;
31336;SDS011;22846;42.654;23.314;2023-04-15T02:45:52;1.63;;;1.20;;
31336;SDS011;22846;42.654;23.314;2023-04-15T02:48:18;1.70;;;1.30;;
31336;SDS011;22846;42.654;23.314;2023-04-15T02:50:45;2.03;;;1.40;;
31336;SDS011;22846;42.654;23.314;2023-04-15T02:53:10;2.08;;;1.42;;
31336;SDS011;22846;42.654;23.314;2023-04-15T02:55:37;1.60;;;1.13;;
31336;SDS011;22846;42.654;23.314;2023-04-15T02:58:03;1.60;;;1.20;;
31336;SDS011;22846;42.654;23.314;2023-04-15T03:00:28;1.88;;;1.20;;
31336;SDS011;22846;42.654;23.314;2023-04-15T03:02:57;2.20;;;1.30;;
31336;SDS011;22846;42.654;23.314;2023-04-15T03:05:29;1.60;;;1.20;;
31336;SDS011;22846;42.654;23.314;2023-04-15T03:07:54;1.33;;;1.05;;
31336;SDS011;22846;42.654;23.314;2023-04-15T03:10:20;1.50;;;1.02;;
31336;SDS011;22846;42.654;23.314;2023-04-15T03:12:46;1.98;;;1.20;;
31336;SDS011;22846;42.654;23.314;2023-04-15T03:15:12;1.77;;;1.20;;
31336;SDS011;22846;42.654;23.314;2023-04-15T03:17:37;1.50;;;1.17;;
31336;SDS011;22846;42.654;23.314;2023-04-15T03:20:03;1.73;;;1.30;;
31336;SDS011;22846;42.654;23.314;2023-04-15T03:22:30;1.80;;;1.27;;
31336;SDS011;22846;42.654;23.314;2023-04-15T03:24:56;1.00;;;0.90;;
31336;SDS011;22846;42.654;23.314;2023-04-15T03:27:22;1.83;;;1.10;;
31336;SDS011;22846;42.654;23.314;2023-04-15T03:29:48;1.60;;;1.30;;
31336;SDS011;22846;42.654;23.314;2023-04-15T03:32:13;1.73;;;1.30;;
31336;SDS011;22846;42.654;23.314;2023-04-15T03:34:39;1.83;;;1.20;;
31336;SDS011;22846;42.654;23.314;2023-04-15T03:37:06;1.52;;;1.13;;
31336;SDS011;22846;42.654;23.314;2023-04-15T03:39:31;2.05;;;1.40;;
31336;SDS011;22846;42.654;23.314;2023-04-15T03:41:57;1.60;;;1.25;;
31336;SDS011;22846;42.654;23.314;2023-04-15T03:44:24;1.38;;;1.08;;
31336;SDS011;22846;42.654;23.314;2023-04-15T03:46:50;1.67;;;1.30;;
31336;SDS011;22846;42.654;23.314;2023-04-15T03:49:16;2.20;;;1.38;;
31336;SDS011;22846;42.654;23.314;2023-04-15T03:51:41;1.95;;;1.13;;
31336;SDS011;22846;42.654;23.314;2023-04-15T03:54:07;1.65;;;1.17;;
31336;SDS011;22846;42.654;23.314;2023-04-15T03:56:32;2.15;;;1.20;;
31336;SDS011;22846;42.654;23.314;2023-04-15T03:58:57;1.83;;;1.38;;
31336;SDS011;22846;42.654;23.314;2023-04-15T04:01:23;1.40;;;1.23;;
31336;SDS011;22846;42.654;23.314;2023-04-15T04:03:48;2.25;;;1.30;;
31336;SDS011;22846;42.654;23.314;2023-04-15T04:06:14;1.73;;;1.30;;
31336;SDS011;22846;42.654;23.314;2023-04-15T04:08:39;1.60;;;1.05;;
31336;SDS011;22846;42.654;23.314;2023-04-15T04:11:05;1.73;;;1.30;;
31336;SDS011;22846;42.654;23.314;2023-04-15T04:13:30;1.55;;;1.20;;
31336;SDS011;22846;42.654;23.314;2023-04-15T04:15:56;2.13;;;1.30;;
31336;SDS011;22846;42.654;23.314;2023-04-15T04:18:21;2.67;;;1.40;;
31336;SDS011;22846;42.654;23.314;2023-04-15T04:20:47;1.63;;;1.30;;
31336;SDS011;22846;42.654;23.314;2023-04-15T04:23:12;1.38;;;1.23;;
31336;SDS011;22846;42.654;23.314;2023-04-15T04:25:38;2.03;;;1.25;;
31336;SDS011;22846;42.654;23.314;2023-04-15T04:28:03;1.98;;;1.30;;
31336;SDS011;22846;42.654;23.314;2023-04-15T04:30:28;1.85;;;1.25;;
31336;SDS011;22846;42.654;23.314;2023-04-15T04:32:54;2.33;;;1.40;;
31336;SDS011;22846;42.654;23.314;2023-04-15T04:35:19;1.95;;;1.42;;
31336;SDS011;22846;42.654;23.314;2023-04-15T04:37:45;2.08;;;1.40;;
31336;SDS011;22846;42.654;23.314;2023-04-15T04:40:11;1.73;;;1.40;;
31336;SDS011;22846;42.654;23.314;2023-04-15T04:42:37;1.63;;;1.10;;
31336;SDS011;22846;42.654;23.314;2023-04-15T04:45:02;2.55;;;1.30;;
31336;SDS011;22846;42.654;23.314;2023-04-15T04:47:28;1.63;;;1.30;;
31336;SDS011;22846;42.654;23.314;2023-04-15T04:49:54;2.22;;;1.35;;
31336;SDS011;22846;42.654;23.314;2023-04-15T04:52:19;1.80;;;1.40;;
31336;SDS011;22846;42.654;23.314;2023-04-15T04:54:44;1.55;;;1.35;;
31336;SDS011;22846;42.654;23.314;2023-04-15T04:57:11;1.63;;;1.23;;
31336;SDS011;22846;42.654;23.314;2023-04-15T04:59:37;1.60;;;1.50;;
31336;SDS011;22846;42.654;23.314;2023-04-15T05:02:03;1.98;;;1.30;;
31336;SDS011;22846;42.654;23.314;2023-04-15T05:04:28;2.85;;;1.50;;
31336;SDS011;22846;42.654;23.314;2023-04-15T05:06:55;2.28;;;1.55;;
31336;SDS011;22846;42.654;23.314;2023-04-15T05:09:20;2.38;;;1.65;;
31336;SDS011;22846;42.654;23.314;2023-04-15T05:11:46;1.60;;;1.20;;
31336;SDS011;22846;42.654;23.314;2023-04-15T05:14:11;1.65;;;1.33;;
31336;SDS011;22846;42.654;23.314;2023-04-15T05:16:36;1.70;;;1.35;;
31336;SDS011;22846;42.654;23.314;2023-04-15T05:19:02;4.22;;;1.40;;
31336;SDS011;22846;42.654;23.314;2023-04-15T05:21:27;1.52;;;1.30;;
31336;SDS011;22846;42.654;23.314;2023-04-15T05:23:53;1.92;;;1.40;;
31336;SDS011;22846;42.654;23.314;2023-04-15T05:26:18;1.95;;;1.52;;
31336;SDS011;22846;42.654;23.314;2023-04-15T05:28:44;1.30;;;1.20;;
31336;SDS011;22846;42.654;23.314;2023-04-15T05:31:09;1.80;;;1.30;;
31336;SDS011;22846;42.654;23.314;2023-04-15T05:33:35;1.38;;;1.20;;
31336;SDS011;22846;42.654;23.314;2023-04-15T05:36:00;2.42;;;1.48;;
31336;SDS011;22846;42.654;23.314;2023-04-15T05:38:26;2.42;;;1.83;;
31336;SDS011;22846;42.654;23.314;2023-04-15T05:40:51;1.63;;;1.40;;
31336;SDS011;22846;42.654;23.314;2023-04-15T05:43:17;3.45;;;1.50;;
31336;SDS011;22846;42.654;23.314;2023-04-15T05:45:42;1.75;;;1.50;;
31336;SDS011;22846;42.654;23.314;2023-04-15T05:48:07;2.40;;;1.63;;
31336;SDS011;22846;42.654;23.314;2023-04-15T05:50:33;2.13;;;1.38;;
31336;SDS011;22846;42.654;23.314;2023-04-15T05:52:59;1.65;;;1.38;;
31336;SDS011;22846;42.654;23.314;2023-04-15T05:55:26;2.38;;;1.45;;
31336;SDS011;22846;42.654;23.314;2023-04-15T05:57:51;2.28;;;1.30;;
31336;SDS011;22846;42.654;23.314;2023-04-15T06:00:16;2.42;;;1.50;;
31336;SDS011;22846;42.654;23.314;2023-04-15T06:02:42;1.75;;;1.35;;
31336;SDS011;22846;42.654;23.314;2023-04-15T06:05:07;2.35;;;1.70;;
31336;SDS011;22846;42.654;23.314;2023-04-15T06:07:35;2.38;;;1.33;;
31336;SDS011;22846;42.654;23.314;2023-04-15T06:10:01;1.85;;;1.10;;
31336;SDS011;22846;42.654;23.314;2023-04-15T06:12:27;1.60;;;1.50;;
31336;SDS011;22846;42.654;23.314;2023-04-15T06:14:53;2.60;;;1.50;;
31336;SDS011;22846;42.654;23.314;2023-04-15T06:17:18;1.60;;;1.42;;
31336;SDS011;22846;42.654;23.314;2023-04-15T06:19:43;1.85;;;1.40;;
31336;SDS011;22846;42.654;23.314;2023-04-15T06:22:09;1.83;;;1.33;;
31336;SDS011;22846;42.654;23.314;2023-04-15T06:24:34;1.48;;;1.13;;
31336;SDS011;22846;42.654;23.314;2023-04-15T06:27:01;2.35;;;1.40;;
31336;SDS011;22846;42.654;23.314;2023-04-15T06:29:27;2.30;;;1.63;;
31336;SDS011;22846;42.654;23.314;2023-04-15T06:31:53;1.45;;;1.27;;
31336;SDS011;22846;42.654;23.314;2023-04-15T06:34:18;1.50;;;1.15;;
31336;SDS011;22846;42.654;23.314;2023-04-15T06:36:44;1.50;;;1.10;;
31336;SDS011;22846;42.654;23.314;2023-04-15T06:39:09;2.70;;;1.45;;
31336;SDS011;22846;42.654;23.314;2023-04-15T06:41:35;1.92;;;1.20;;
31336;SDS011;22846;42.654;23.314;2023-04-15T06:44:00;1.77;;;1.10;;
31336;SDS011;22846;42.654;23.314;2023-04-15T06:46:26;1.52;;;1.30;;
31336;SDS011;22846;42.654;23.314;2023-04-15T06:51:26;1.63;;;1.30;;
31336;SDS011;22846;42.654;23.314;2023-04-15T06:53:52;2.53;;;1.50;;
31336;SDS011;22846;42.654;23.314;2023-04-15T06:56:18;1.75;;;1.50;;
31336;SDS011;22846;42.654;23.314;2023-04-15T06:58:43;2.28;;;1.50;;
31336;SDS011;22846;42.654;23.314;2023-04-15T07:01:08;2.47;;;1.38;;
31336;SDS011;22846;42.654;23.314;2023-04-15T07:03:34;1.92;;;1.40;;
31336;SDS011;22846;42.654;23.314;2023-04-15T07:05:59;1.83;;;1.38;;
31336;SDS011;22846;42.654;23.314;2023-04-15T07:08:25;1.40;;;1.25;;
31336;SDS011;22846;42.654;23.314;2023-04-15T07:10:51;1.95;;;1.55;;
31336;SDS011;22846;42.654;23.314;2023-04-15T07:13:16;1.27;;;1.17;;
31336;SDS011;22846;42.654;23.314;2023-04-15T07:15:42;1.48;;;1.25;;
31336;SDS011;22846;42.654;23.314;2023-04-15T07:18:07;1.92;;;1.40;;
31336;SDS011;22846;42.654;23.314;2023-04-15T07:20:33;1.60;;;1.23;;
31336;SDS011;22846;42.654;23.314;2023-04-15T07:22:59;1.60;;;1.23;;
31336;SDS011;22846;42.654;23.314;2023-04-15T07:25:24;2.15;;;1.50;;
31336;SDS011;22846;42.654;23.314;2023-04-15T07:27:51;2.92;;;1.60;;
31336;SDS011;22846;42.654;23.314;2023-04-15T07:30:17;2.03;;;1.38;;
31336;SDS011;22846;42.654;23.314;2023-04-15T07:32:42;2.13;;;1.30;;
31336;SDS011;22846;42.654;23.314;2023-04-15T07:35:08;2.00;;;1.40;;
31336;SDS011;22846;42.654;23.314;2023-04-15T07:37:33;1.58;;;1.45;;
31336;SDS011;22846;42.654;23.314;2023-04-15T07:39:59;1.67;;;1.23;;
31336;SDS011;22846;42.654;23.314;2023-04-15T07:42:25;1.58;;;1.27;;
31336;SDS011;22846;42.654;23.314;2023-04-15T07:44:50;2.15;;;1.40;;
31336;SDS011;22846;42.654;23.314;2023-04-15T07:47:16;2.08;;;1.38;;
31336;SDS011;22846;42.654;23.314;2023-04-15T07:49:41;2.08;;;1.38;;
31336;SDS011;22846;42.654;23.314;2023-04-15T07:52:07;1.42;;;1.00;;
31336;SDS011;22846;42.654;23.314;2023-04-15T07:54:32;3.15;;;1.55;;
31336;SDS011;22846;42.654;23.314;2023-04-15T07:56:58;2.20;;;1.42;;
31336;SDS011;22846;42.654;23.314;2023-04-15T07:59:23;2.20;;;1.40;;
31336;SDS011;22846;42.654;23.314;2023-04-15T08:01:49;2.25;;;1.25;;
31336;SDS011;22846;42.654;23.314;2023-04-15T08:04:14;3.33;;;1.33;;
31336;SDS011;22846;42.654;23.314;2023-04-15T08:06:40;2.13;;;1.50;;
31336;SDS011;22846;42.654;23.314;2023-04-15T08:09:05;2.28;;;1.45;;
31336;SDS011;22846;42.654;23.314;2023-04-15T08:11:32;4.03;;;1.60;;
31336;SDS011;22846;42.654;23.314;2023-04-15T08:13:57;2.17;;;1.60;;
31336;SDS011;22846;42.654;23.314;2023-04-15T08:16:23;2.33;;;1.33;;
31336;SDS011;22846;42.654;23.314;2023-04-15T08:18:53;2.58;;;1.50;;
31336;SDS011;22846;42.654;23.314;2023-04-15T08:21:19;2.38;;;1.50;;
31336;SDS011;22846;42.654;23.314;2023-04-15T08:23:45;2.70;;;1.38;;
31336;SDS011;22846;42.654;23.314;2023-04-15T08:26:12;3.53;;;1.70;;
31336;SDS011;22846;42.654;23.314;2023-04-15T08:28:38;5.90;;;2.58;;
31336;SDS011;22846;42.654;23.314;2023-04-15T08:31:05;8.63;;;4.75;;
31336;SDS011;22846;42.654;23.314;2023-04-15T08:33:30;9.32;;;5.38;;
31336;SDS011;22846;42.654;23.314;2023-04-15T08:35:55;7.45;;;3.60;;
31336;SDS011;22846;42.654;23.314;2023-04-15T08:38:21;7.40;;;4.43;;
31336;SDS011;22846;42.654;23.314;2023-04-15T08:40:47;8.27;;;4.65;;
31336;SDS011;22846;42.654;23.314;2023-04-15T08:43:23;7.53;;;3.97;;
31336;SDS011;22846;42.654;23.314;2023-04-15T08:45:54;7.65;;;4.80;;
31336;SDS011;22846;42.654;23.314;2023-04-15T08:48:22;5.68;;;3.15;;
31336;SDS011;22846;42.654;23.314;2023-04-15T08:50:52;7.43;;;3.40;;
31336;SDS011;22846;42.654;23.314;2023-04-15T08:53:18;4.97;;;3.10;;
31336;SDS011;22846;42.654;23.314;2023-04-15T08:55:44;4.78;;;2.50;;
31336;SDS011;22846;42.654;23.314;2023-04-15T08:58:11;4.72;;;2.80;;
31336;SDS011;22846;42.654;23.314;2023-04-15T09:00:38;3.65;;;2.40;;
31336;SDS011;22846;42.654;23.314;2023-04-15T09:03:05;6.97;;;2.63;;
31336;SDS011;22846;42.654;23.314;2023-04-15T09:05:32;4.10;;;2.67;;
31336;SDS011;22846;42.654;23.314;2023-04-15T09:07:58;4.28;;;2.58;;
31336;SDS011;22846;42.654;23.314;2023-04-15T09:10:23;4.18;;;2.50;;
31336;SDS011;22846;42.654;23.314;2023-04-15T09:12:49;3.50;;;2.38;;
31336;SDS011;22846;42.654;23.314;2023-04-15T09:15:14;3.67;;;2.20;;
31336;SDS011;22846;42.654;23.314;2023-04-15T09:17:44;3.08;;;2.10;;
31336;SDS011;22846;42.654;23.314;2023-04-15T09:22:37;3.10;;;2.17;;
31336;SDS011;22846;42.654;23.314;2023-04-15T09:27:51;2.08;;;1.67;;
31336;SDS011;22846;42.654;23.314;2023-04-15T09:30:18;3.20;;;1.80;;
31336;SDS011;22846;42.654;23.314;2023-04-15T09:32:48;3.47;;;2.00;;
31336;SDS011;22846;42.654;23.314;2023-04-15T09:35:17;3.53;;;2.22;;
31336;SDS011;22846;42.654;23.314;2023-04-15T09:37:43;2.72;;;2.00;;
31336;SDS011;22846;42.654;23.314;2023-04-15T09:40:08;3.67;;;1.92;;
31336;SDS011;22846;42.654;23.314;2023-04-15T09:42:55;3.15;;;1.85;;
31336;SDS011;22846;42.654;23.314;2023-04-15T09:45:20;5.65;;;2.33;;
31336;SDS011;22846;42.654;23.314;2023-04-15T09:47:47;3.42;;;1.90;;
31336;SDS011;22846;42.654;23.314;2023-04-15T09:50:12;3.15;;;2.15;;
31336;SDS011;22846;42.654;23.314;2023-04-15T09:52:42;2.75;;;1.95;;
31336;SDS011;22846;42.654;23.314;2023-04-15T09:55:08;4.70;;;1.80;;
31336;SDS011;22846;42.654;23.314;2023-04-15T09:57:35;4.25;;;2.20;;
31336;SDS011;22846;42.654;23.314;2023-04-15T10:00:04;2.90;;;1.73;;
31336;SDS011;22846;42.654;23.314;2023-04-15T10:02:33;2.92;;;1.75;;
31336;SDS011;22846;42.654;23.314;2023-04-15T10:04:59;2.28;;;1.80;;
31336;SDS011;22846;42.654;23.314;2023-04-15T10:07:26;2.75;;;1.70;;
31336;SDS011;22846;42.654;23.314;2023-04-15T10:09:51;3.25;;;1.83;;
31336;SDS011;22846;42.654;23.314;2023-04-15T10:12:17;2.28;;;1.55;;
31336;SDS011;22846;42.654;23.314;2023-04-15T10:14:44;2.88;;;1.73;;
31336;SDS011;22846;42.654;23.314;2023-04-15T10:17:13;3.33;;;2.08;;
31336;SDS011;22846;42.654;23.314;2023-04-15T10:19:41;5.57;;;1.70;;
31336;SDS011;22846;42.654;23.314;2023-04-15T10:22:07;2.85;;;1.88;;
31336;SDS011;22846;42.654;23.314;2023-04-15T10:24:33;3.00;;;1.90;;
31336;SDS011;22846;42.654;23.314;2023-04-15T10:26:59;3.22;;;1.83;;
31336;SDS011;22846;42.654;23.314;2023-04-15T10:29:25;2.03;;;1.58;;
31336;SDS011;22846;42.654;23.314;2023-04-15T10:31:56;1.98;;;1.60;;
31336;SDS011;22846;42.654;23.314;2023-04-15T10:34:23;1.95;;;1.50;;
31336;SDS011;22846;42.654;23.314;2023-04-15T10:36:49;2.35;;;1.48;;
31336;SDS011;22846;42.654;23.314;2023-04-15T10:42:11;2.47;;;1.30;;
31336;SDS011;22846;42.654;23.314;2023-04-15T10:44:38;3.92;;;1.77;;
31336;SDS011;22846;42.654;23.314;2023-04-15T10:47:13;3.25;;;1.55;;
31336;SDS011;22846;42.654;23.314;2023-04-15T10:50:04;4.07;;;1.70;;
31336;SDS011;22846;42.654;23.314;2023-04-15T10:52:29;2.05;;;1.60;;
31336;SDS011;22846;42.654;23.314;2023-04-15T10:55:11;2.15;;;1.45;;
31336;SDS011;22846;42.654;23.314;2023-04-15T10:57:40;2.53;;;1.40;;
31336;SDS011;22846;42.654;23.314;2023-04-15T11:02:43;1.92;;;1.23;;
31336;SDS011;22846;42.654;23.314;2023-04-15T11:05:10;1.58;;;1.13;;
31336;SDS011;22846;42.654;23.314;2023-04-15T11:12:45;1.98;;;1.40;;
31336;SDS011;22846;42.654;23.314;2023-04-15T11:18:11;3.65;;;1.58;;
31336;SDS011;22846;42.654;23.314;2023-04-15T11:20:48;38.05;;;3.92;;
31336;SDS011;22846;42.654;23.314;2023-04-15T11:23:29;12.23;;;1.63;;
31336;SDS011;22846;42.654;23.314;2023-04-15T11:25:57;6.22;;;1.23;;
31336;SDS011;22846;42.654;23.314;2023-04-15T11:28:25;3.15;;;1.23;;
31336;SDS011;22846;42.654;23.314;2023-04-15T11:30:53;6.55;;;1.17;;
31336;SDS011;22846;42.654;23.314;2023-04-15T11:33:20;5.30;;;1.38;;
31336;SDS011;22846;42.654;23.314;2023-04-15T11:35:46;7.85;;;1.30;;
31336;SDS011;22846;42.654;23.314;2023-04-15T11:38:13;7.03;;;1.40;;
31336;SDS011;22846;42.654;23.314;2023-04-15T11:40:39;5.15;;;1.13;;
31336;SDS011;22846;42.654;23.314;2023-04-15T11:43:07;6.47;;;1.00;;
31336;SDS011;22846;42.654;23.314;2023-04-15T11:45:32;10.93;;;1.50;;
31336;SDS011;22846;42.654;23.314;2023-04-15T11:48:07;7.13;;;1.00;;
31336;SDS011;22846;42.654;23.314;2023-04-15T11:50:34;27.58;;;14.75;;
31336;SDS011;22846;42.654;23.314;2023-04-15T11:53:01;9.82;;;3.35;;
31336;SDS011;22846;42.654;23.314;2023-04-15T11:55:29;8.57;;;3.83;;
31336;SDS011;22846;42.654;23.314;2023-04-15T11:58:14;10.85;;;3.80;;
31336;SDS011;22846;42.654;23.314;2023-04-15T12:00:50;19.45;;;3.85;;
31336;SDS011;22846;42.654;23.314;2023-04-15T12:14:09;10.10;;;2.90;;
31336;SDS011;22846;42.654;23.314;2023-04-15T12:16:40;12.27;;;3.00;;
31336;SDS011;22846;42.654;23.314;2023-04-15T12:19:09;16.63;;;2.92;;
31336;SDS011;22846;42.654;23.314;2023-04-15T12:21:36;12.40;;;2.90;;
31336;SDS011;22846;42.654;23.314;2023-04-15T12:24:04;10.50;;;2.80;;
31336;SDS011;22846;42.654;23.314;2023-04-15T12:26:36;12.18;;;2.83;;
31336;SDS011;22846;42.654;23.314;2023-04-15T12:29:07;19.58;;;3.05;;
31336;SDS011;22846;42.654;23.314;2023-04-15T12:31:36;14.82;;;2.80;;
31336;SDS011;22846;42.654;23.314;2023-04-15T12:34:08;17.95;;;3.70;;
31336;SDS011;22846;42.654;23.314;2023-04-15T12:36:33;25.15;;;3.28;;
31336;SDS011;22846;42.654;23.314;2023-04-15T12:39:02;16.95;;;2.78;;
31336;SDS011;22846;42.654;23.314;2023-04-15T12:41:29;16.42;;;3.42;;
31336;SDS011;22846;42.654;23.314;2023-04-15T12:43:54;10.93;;;3.08;;
31336;SDS011;22846;42.654;23.314;2023-04-15T12:46:20;12.45;;;2.70;;
31336;SDS011;22846;42.654;23.314;2023-04-15T12:48:46;18.92;;;3.28;;
31336;SDS011;22846;42.654;23.314;2023-04-15T12:51:12;24.73;;;3.72;;
31336;SDS011;22846;42.654;23.314;2023-04-15T12:53:38;25.73;;;3.67;;
31336;SDS011;22846;42.654;23.314;2023-04-15T12:56:03;18.65;;;2.22;;
31336;SDS011;22846;42.654;23.314;2023-04-15T12:58:30;15.45;;;1.63;;
31336;SDS011;22846;42.654;23.314;2023-04-15T13:00:56;7.88;;;1.67;;
31336;SDS011;22846;42.654;23.314;2023-04-15T13:03:21;11.90;;;1.92;;
31336;SDS011;22846;42.654;23.314;2023-04-15T13:05:46;8.70;;;1.83;;
31336;SDS011;22846;42.654;23.314;2023-04-15T13:08:12;11.00;;;1.70;;
31336;SDS011;22846;42.654;23.314;2023-04-15T13:10:37;8.93;;;2.13;;
31336;SDS011;22846;42.654;23.314;2023-04-15T13:13:03;15.98;;;2.30;;
31336;SDS011;22846;42.654;23.314;2023-04-15T13:15:29;21.33;;;2.90;;
31336;SDS011;22846;42.654;23.314;2023-04-15T13:17:55;26.20;;;3.40;;
31336;SDS011;22846;42.654;23.314;2023-04-15T13:20:21;25.80;;;3.70;;
31336;SDS011;22846;42.654;23.314;2023-04-15T13:22:46;31.52;;;4.22;;
31336;SDS011;22846;42.654;23.314;2023-04-15T13:25:12;15.10;;;4.03;;
31336;SDS011;22846;42.654;23.314;2023-04-15T13:27:37;20.88;;;3.63;;
31336;SDS011;22846;42.654;23.314;2023-04-15T13:30:03;15.63;;;4.00;;
31336;SDS011;22846;42.654;23.314;2023-04-15T13:32:29;22.75;;;3.75;;
31336;SDS011;22846;42.654;23.314;2023-04-15T13:34:55;14.38;;;3.15;;
31336;SDS011;22846;42.654;23.314;2023-04-15T13:37:24;16.45;;;3.25;;
31336;SDS011;22846;42.654;23.314;2023-04-15T13:39:52;22.48;;;3.45;;
31336;SDS011;22846;42.654;23.314;2023-04-15T13:42:17;21.08;;;2.90;;
31336;SDS011;22846;42.654;23.314;2023-04-15T13:44:43;21.92;;;3.47;;
31336;SDS011;22846;42.654;23.314;2023-04-15T13:47:08;15.50;;;3.08;;
31336;SDS011;22846;42.654;23.314;2023-04-15T13:49:33;16.92;;;3.58;;
31336;SDS011;22846;42.654;23.314;2023-04-15T13:51:59;9.02;;;2.58;;
31336;SDS011;22846;42.654;23.314;2023-04-15T13:54:24;20.48;;;3.10;;
31336;SDS011;22846;42.654;23.314;2023-04-15T13:56:50;17.00;;;2.90;;
31336;SDS011;22846;42.654;23.314;2023-04-15T13:59:15;12.07;;;2.92;;
31336;SDS011;22846;42.654;23.314;2023-04-15T14:01:40;7.82;;;2.60;;
31336;SDS011;22846;42.654;23.314;2023-04-15T14:04:06;13.20;;;2.75;;
31336;SDS011;22846;42.654;23.314;2023-04-15T14:06:31;17.73;;;2.90;;
31336;SDS011;22846;42.654;23.314;2023-04-15T14:08:56;14.43;;;4.07;;
31336;SDS011;22846;42.654;23.314;2023-04-15T14:11:22;11.45;;;2.70;;
31336;SDS011;22846;42.654;23.314;2023-04-15T14:13:47;12.82;;;2.90;;
31336;SDS011;22846;42.654;23.314;2023-04-15T14:16:13;12.68;;;2.67;;
31336;SDS011;22846;42.654;23.314;2023-04-15T14:18:38;16.15;;;3.55;;
31336;SDS011;22846;42.654;23.314;2023-04-15T14:21:04;38.15;;;22.23;;
31336;SDS011;22846;42.654;23.314;2023-04-15T14:23:31;66.35;;;40.30;;
31336;SDS011;22846;42.654;23.314;2023-04-15T14:25:58;62.67;;;38.08;;
31336;SDS011;22846;42.654;23.314;2023-04-15T14:28:23;53.28;;;34.42;;
31336;SDS011;22846;42.654;23.314;2023-04-15T14:30:48;48.55;;;29.30;;
31336;SDS011;22846;42.654;23.314;2023-04-15T14:33:14;39.80;;;27.27;;
31336;SDS011;22846;42.654;23.314;2023-04-15T14:35:40;41.53;;;26.40;;
31336;SDS011;22846;42.654;23.314;2023-04-15T14:38:05;47.85;;;24.67;;
31336;SDS011;22846;42.654;23.314;2023-04-15T14:40:34;42.85;;;24.15;;
31336;SDS011;22846;42.654;23.314;2023-04-15T14:43:00;40.63;;;23.13;;
31336;SDS011;22846;42.654;23.314;2023-04-15T14:45:25;14.40;;;7.57;;
31336;SDS011;22846;42.654;23.314;2023-04-15T14:47:51;25.13;;;13.50;;
31336;SDS011;22846;42.654;23.314;2023-04-15T14:50:17;17.73;;;7.85;;
31336;SDS011;22846;42.654;23.314;2023-04-15T14:52:43;10.00;;;5.60;;
31336;SDS011;22846;42.654;23.314;2023-04-15T14:55:09;10.20;;;4.97;;
31336;SDS011;22846;42.654;23.314;2023-04-15T14:57:37;17.08;;;8.07;;